Accueil
METAR-TAF:

METAR-TAF

Aéroports :

Base aérienne 279 Châteaudun

Châteaudun, France

latitude: 48-03N, longitude: 001-23E, altitude: 134 m

Observation

Le bulletin a été fait il y a 23 minutes, à 13:00 UTC
Vent 12 kt de nord-est
Température 24°C
Humidité 38%
Pression 1032 hPa
Visibilité 10 km ou plus
pas de nuages en-dessous de 1500 mètres et pas de cumulonimbus.

METAR: LFOC 271300Z AUTO 05012KT CAVOK 24/09 Q1032 NOSIG

Heure: 15:23 (13:23 UTC)

Prévision

Le bulletin a été fait il y a 5 heures et 23 minutes, à 08:00 UTC
Prévision valable du 27 à 09 UTC au 28 à 09 UTC
Vent 10 kt de est/nord-est
Visibilité 10 km ou plus
pas de nuages en-dessous de 1500 mètres et pas de cumulonimbus.

TAF: LFOC 270800Z 2709/2809 06010KT CAVOK

Observations et prévisions météorologiques de plus de 4000 aéroports (messages METAR et TAF).

Les stations disponibles sont représentées par des disques jaunes et rouges sur la carte.

Passer la souris dessus pour voir le nom de la station.

Cliquer dessus pour voir les observations et prévisions météorologiques.

Pour changer de carte: cliquez sur les boutons verts avec une croix noire pour zoomer, sur le bouton vert avec un tiret pour effectuer un zoom arrière, ou sur les flèches vertes pour les cartes adjacentes.


METAR-TAF: